Time;durP1;ratioP1;P1;durP2;ratioP2;P2;SDS_P1;SDS_P2;PMS_P1;PMS_P2;Temp;Humidity;BMP_temperature;BMP_pressure;BME280_temperature;BME280_humidity;BME280_pressure;Samples;Min_cycle;Max_cycle;Signal;HPM_P1;HPM_P2
2022/12/29 00:01:18;;;;;;;2.80;2.50;;;10.40;99.90;;;;;;5013458;28;20640;-79
2022/12/29 00:03:47;;;;;;;5.18;2.15;;;10.40;99.90;;;;;;5029655;28;20048;-79
2022/12/29 00:06:13;;;;;;;3.50;2.38;;;10.50;99.90;;;;;;5029801;28;20048;-79
2022/12/29 00:08:41;;;;;;;2.45;2.03;;;10.40;99.90;;;;;;5013901;28;20052;-79
2022/12/29 00:11:21;;;;;;;4.90;3.13;;;10.40;99.90;;;;;;5013303;28;20508;-79
2022/12/29 00:16:32;;;;;;;4.13;2.30;;;10.40;99.90;;;;;;5029844;28;20041;-79
2022/12/29 00:18:58;;;;;;;2.85;1.92;;;10.40;99.90;;;;;;5029505;28;20086;-79
2022/12/29 00:35:25;;;;;;;2.53;2.00;;;10.40;99.90;;;;;;5029725;28;20045;-79
2022/12/29 00:46:04;;;;;;;4.18;1.60;;;10.60;99.90;;;;;;5028762;28;20095;-80
2022/12/29 00:51:14;;;;;;;2.88;2.17;;;10.60;99.90;;;;;;5029292;28;20102;-79
2022/12/29 00:53:40;;;;;;;6.07;2.15;;;10.60;99.90;;;;;;5029494;28;20128;-79
2022/12/29 00:56:06;;;;;;;3.63;1.90;;;10.60;99.90;;;;;;5029384;28;20508;-79
2022/12/29 00:58:31;;;;;;;4.15;2.03;;;10.60;99.90;;;;;;5012556;28;20115;-79
2022/12/29 01:01:05;;;;;;;3.03;1.85;;;11.10;99.90;;;;;;5029320;28;20124;-79
2022/12/29 01:03:31;;;;;;;3.40;1.70;;;10.60;99.90;;;;;;5028735;28;20237;-79
2022/12/29 01:06:01;;;;;;;3.78;1.80;;;10.70;99.90;;;;;;5028785;28;20049;-79
2022/12/29 01:08:30;;;;;;;4.38;1.77;;;10.70;99.90;;;;;;5028994;28;20110;-79
2022/12/29 01:11:05;;;;;;;5.85;1.90;;;10.70;99.90;;;;;;4979709;28;20044;-78
2022/12/29 01:13:31;;;;;;;4.28;2.17;;;10.70;99.90;;;;;;5029250;28;20055;-79
2022/12/29 01:15:57;;;;;;;3.20;1.67;;;10.80;99.90;;;;;;5028703;28;20452;-79
2022/12/29 01:18:24;;;;;;;3.70;2.00;;;10.80;99.90;;;;;;5028836;28;20079;-80
2022/12/29 01:20:49;;;;;;;2.53;1.98;;;10.80;99.90;;;;;;5028676;28;20053;-79
2022/12/29 01:23:15;;;;;;;3.20;2.10;;;10.80;99.90;;;;;;4996575;28;20045;-79
2022/12/29 01:25:41;;;;;;;3.35;2.10;;;10.80;99.90;;;;;;5013380;28;20044;-80
2022/12/29 01:28:10;;;;;;;3.92;2.55;;;10.70;99.90;;;;;;5016327;28;20067;-80
2022/12/29 01:30:36;;;;;;;3.80;2.17;;;10.70;99.90;;;;;;5033113;28;20083;-80
2022/12/29 01:33:01;;;;;;;8.32;2.10;;;10.70;99.90;;;;;;5016091;28;20076;-79
2022/12/29 01:35:27;;;;;;;2.60;2.08;;;10.70;99.90;;;;;;5032771;28;20049;-80
2022/12/29 01:37:53;;;;;;;5.22;2.25;;;10.70;99.90;;;;;;5032987;28;20471;-80
2022/12/29 01:40:19;;;;;;;2.90;2.00;;;10.70;99.90;;;;;;5032520;28;20049;-80
2022/12/29 01:42:45;;;;;;;2.78;1.90;;;10.80;99.90;;;;;;5032737;28;20060;-80
2022/12/29 01:45:13;;;;;;;3.67;2.22;;;10.70;99.90;;;;;;4999947;28;20342;-80
2022/12/29 01:47:44;;;;;;;2.65;2.08;;;10.90;99.90;;;;;;5033614;28;20072;-80
2022/12/29 01:50:15;;;;;;;1.95;1.73;;;10.70;99.90;;;;;;5015699;28;20040;-81
2022/12/29 01:52:50;;;;;;;5.50;2.50;;;10.70;99.90;;;;;;5015945;28;20515;-81
2022/12/29 01:55:17;;;;;;;4.07;2.20;;;10.60;99.90;;;;;;5032233;28;20492;-81
2022/12/29 01:57:49;;;;;;;3.42;1.83;;;10.60;99.90;;;;;;5032239;28;20045;-81
2022/12/29 02:00:15;;;;;;;3.90;2.47;;;10.60;99.90;;;;;;5016512;28;20056;-81
2022/12/29 02:02:46;;;;;;;3.58;2.40;;;10.60;99.90;;;;;;5015781;28;20557;-81
2022/12/29 02:05:33;;;;;;;2.88;2.05;;;10.50;99.90;;;;;;5016263;28;20052;-82
2022/12/29 02:08:01;;;;;;;2.88;2.35;;;10.50;99.90;;;;;;5032457;28;20051;-82
2022/12/29 02:10:29;;;;;;;3.97;2.53;;;10.50;99.90;;;;;;5000023;28;20084;-82
2022/12/29 02:12:56;;;;;;;4.72;2.25;;;10.40;99.90;;;;;;5032318;28;20048;-81
2022/12/29 02:15:54;;;;;;;4.40;2.22;;;10.40;99.90;;;;;;5031849;28;20049;-81
2022/12/29 02:18:31;;;;;;;2.40;2.17;;;10.40;99.90;;;;;;5009722;28;20048;-81
2022/12/29 02:21:28;;;;;;;3.53;2.25;;;10.40;99.90;;;;;;5031513;28;20064;-80
2022/12/29 02:24:25;;;;;;;2.25;1.77;;;10.40;99.90;;;;;;5049801;28;20044;-81
2022/12/29 02:27:19;;;;;;;7.35;2.08;;;10.40;99.90;;;;;;5031915;28;20076;-80
2022/12/29 02:30:00;;;;;;;4.93;2.17;;;10.50;99.90;;;;;;5049889;28;20092;-81
2022/12/29 02:32:54;;;;;;;3.58;2.25;;;10.40;99.90;;;;;;5031387;28;20474;-80
2022/12/29 02:35:30;;;;;;;3.80;1.40;;;10.40;99.90;;;;;;5049813;28;20056;-81
2022/12/29 02:38:09;;;;;;;3.38;1.55;;;10.90;99.90;;;;;;5049533;28;20209;-80
2022/12/29 02:40:45;;;;;;;5.07;1.85;;;10.50;99.90;;;;;;5049750;28;20084;-80
2022/12/29 02:43:23;;;;;;;6.90;1.58;;;10.60;99.90;;;;;;5015340;28;20053;-81
2022/12/29 02:45:58;;;;;;;2.17;1.27;;;10.60;99.90;;;;;;5030829;28;20049;-80
2022/12/29 02:48:27;;;;;;;2.65;1.52;;;10.60;99.90;;;;;;5031834;28;20067;-81
2022/12/29 02:51:02;;;;;;;2.53;1.10;;;10.60;99.90;;;;;;5031039;28;20057;-81
2022/12/29 02:56:14;;;;;;;3.67;1.48;;;10.60;99.90;;;;;;5017968;28;20187;-80
2022/12/29 02:58:40;;;;;;;3.50;1.48;;;10.60;99.90;;;;;;5014359;28;20131;-80
2022/12/29 03:01:20;;;;;;;7.68;1.48;;;10.70;99.90;;;;;;5031356;28;20044;-80
2022/12/29 03:04:07;;;;;;;3.33;1.67;;;10.60;99.90;;;;;;5014315;28;20063;-80
2022/12/29 03:06:51;;;;;;;4.10;2.50;;;10.60;99.90;;;;;;5031042;28;20094;-80
2022/12/29 03:09:43;;;;;;;3.90;1.10;;;10.60;99.90;;;;;;5031274;28;20044;-80
2022/12/29 03:12:21;;;;;;;3.90;0.95;;;10.60;99.90;;;;;;5014176;28;20044;-81
2022/12/29 03:17:51;;;;;;;2.92;1.23;;;10.60;99.90;;;;;;5031204;28;20041;-80
2022/12/29 03:20:26;;;;;;;2.30;0.90;;;10.60;99.90;;;;;;5030429;28;20128;-80
2022/12/29 03:22:56;;;;;;;2.13;0.90;;;10.60;99.90;;;;;;5014779;28;20053;-80
2022/12/29 03:25:21;;;;;;;2.47;1.08;;;10.60;99.90;;;;;;5014174;28;20059;-80
2022/12/29 03:28:00;;;;;;;6.25;1.45;;;10.60;99.90;;;;;;5014889;28;20387;-81
2022/12/29 03:30:29;;;;;;;3.35;1.10;;;10.60;99.90;;;;;;5031803;28;20048;-80
2022/12/29 03:33:00;;;;;;;2.50;0.73;;;10.60;99.90;;;;;;5030615;28;20490;-80
2022/12/29 03:35:29;;;;;;;2.22;1.20;;;10.60;99.90;;;;;;5014604;28;20087;-80
2022/12/29 03:38:13;;;;;;;3.30;0.90;;;10.60;99.90;;;;;;5014209;28;20381;-80
2022/12/29 03:40:43;;;;;;;3.42;0.70;;;10.60;99.90;;;;;;5030909;28;20062;-80
2022/12/29 03:43:10;;;;;;;4.50;0.77;;;10.50;99.90;;;;;;5030772;28;20041;-79
2022/12/29 03:45:36;;;;;;;3.85;1.55;;;10.50;99.90;;;;;;5029991;28;20120;-79
2022/12/29 03:48:02;;;;;;;2.63;0.60;;;10.50;99.90;;;;;;5014081;28;20084;-79
2022/12/29 03:50:27;;;;;;;1.48;0.55;;;10.50;99.90;;;;;;5013438;28;20403;-80
2022/12/29 03:52:53;;;;;;;3.80;0.50;;;10.50;99.90;;;;;;5013813;28;20044;-80
2022/12/29 03:55:18;;;;;;;3.30;0.40;;;10.50;99.90;;;;;;4981533;28;20103;-79
2022/12/29 03:57:44;;;;;;;1.45;0.50;;;10.50;99.90;;;;;;4997387;28;20053;-79
2022/12/29 04:00:10;;;;;;;1.70;0.50;;;10.50;99.90;;;;;;5030723;28;20045;-79
2022/12/29 04:02:39;;;;;;;1.42;0.47;;;10.40;99.90;;;;;;5013533;28;20045;-79
2022/12/29 04:05:05;;;;;;;4.75;0.85;;;10.40;99.90;;;;;;5013928;28;20056;-79
2022/12/29 04:07:31;;;;;;;5.43;0.80;;;10.40;99.90;;;;;;5013228;28;20044;-79
2022/12/29 04:09:57;;;;;;;1.73;0.65;;;10.40;99.90;;;;;;5013310;28;20105;-79
2022/12/29 04:12:22;;;;;;;2.70;0.60;;;10.40;99.90;;;;;;5029599;28;20258;-80
2022/12/29 04:14:48;;;;;;;3.70;0.70;;;10.40;99.90;;;;;;4980942;28;20179;-79
2022/12/29 04:17:14;;;;;;;6.45;0.55;;;10.40;99.90;;;;;;5013422;28;20060;-79
2022/12/29 04:19:39;;;;;;;4.18;0.63;;;10.30;99.90;;;;;;5012725;28;20051;-79
2022/12/29 04:22:05;;;;;;;5.70;1.10;;;10.40;99.90;;;;;;5029919;28;20068;-80
2022/12/29 04:24:31;;;;;;;5.95;0.93;;;10.40;99.90;;;;;;5012861;28;20037;-80
2022/12/29 04:26:57;;;;;;;2.40;0.68;;;10.40;99.90;;;;;;4980573;28;20045;-79
2022/12/29 04:29:22;;;;;;;3.00;0.77;;;10.40;99.90;;;;;;5012917;28;20119;-79
2022/12/29 04:31:48;;;;;;;4.35;0.57;;;10.40;99.90;;;;;;5012907;28;20052;-79
2022/12/29 04:34:14;;;;;;;5.50;0.60;;;10.40;99.90;;;;;;5013809;28;20047;-80
2022/12/29 04:36:39;;;;;;;7.57;0.73;;;10.40;99.90;;;;;;4980643;28;20087;-79
2022/12/29 04:39:06;;;;;;;5.90;0.82;;;10.40;99.90;;;;;;4997277;28;20099;-79
2022/12/29 04:41:32;;;;;;;3.40;0.40;;;10.40;99.90;;;;;;5012511;28;20045;-80
2022/12/29 04:43:58;;;;;;;3.13;0.55;;;10.40;99.90;;;;;;4996771;28;20052;-80
2022/12/29 04:46:23;;;;;;;6.85;0.55;;;10.40;99.90;;;;;;5029081;28;20116;-79
2022/12/29 04:48:49;;;;;;;4.93;0.70;;;10.40;99.90;;;;;;5013152;28;20040;-79
2022/12/29 04:51:15;;;;;;;5.45;0.50;;;10.40;99.90;;;;;;5012912;28;20080;-80
2022/12/29 04:53:40;;;;;;;4.63;0.45;;;10.90;99.90;;;;;;5047521;28;20124;-79
2022/12/29 04:56:07;;;;;;;11.25;0.82;;;10.40;99.90;;;;;;5029371;28;20053;-79
2022/12/29 04:58:33;;;;;;;6.13;1.00;;;10.40;99.90;;;;;;5028874;28;20124;-79
2022/12/29 05:00:58;;;;;;;2.45;0.65;;;10.30;99.90;;;;;;5012307;28;20831;-78
2022/12/29 05:03:24;;;;;;;7.68;0.90;;;10.30;99.90;;;;;;4996174;28;20048;-78
2022/12/29 05:05:53;;;;;;;8.25;1.92;;;10.20;99.90;;;;;;5012621;28;20395;-79
2022/12/29 05:08:19;;;;;;;5.13;0.95;;;10.10;99.90;;;;;;5012642;28;20122;-80
2022/12/29 05:10:48;;;;;;;7.75;1.02;;;10.10;99.90;;;;;;4980168;28;20664;-79
2022/12/29 05:13:14;;;;;;;7.13;1.17;;;10.10;99.90;;;;;;5013072;28;20384;-79
2022/12/29 05:15:39;;;;;;;10.68;1.13;;;10.00;99.90;;;;;;5012359;28;20037;-79
2022/12/29 05:18:05;;;;;;;4.95;0.93;;;10.00;99.90;;;;;;5012613;28;20464;-79
2022/12/29 05:20:31;;;;;;;10.32;1.00;;;10.80;99.90;;;;;;5028965;28;20076;-79
2022/12/29 05:22:56;;;;;;;5.70;0.90;;;10.10;99.90;;;;;;5028834;28;20053;-79
2022/12/29 05:25:22;;;;;;;9.90;1.13;;;10.40;99.90;;;;;;5028890;28;20045;-79
2022/12/29 05:27:48;;;;;;;5.43;0.70;;;9.80;99.90;;;;;;5028943;28;20049;-79
2022/12/29 05:30:14;;;;;;;8.07;1.15;;;9.80;99.90;;;;;;5029004;28;20045;-79
2022/12/29 05:32:39;;;;;;;11.65;1.05;;;9.80;99.90;;;;;;4995659;28;20045;-79
2022/12/29 05:35:06;;;;;;;4.90;0.90;;;10.10;99.90;;;;;;4996241;28;20057;-80
2022/12/29 05:37:31;;;;;;;13.20;1.77;;;9.70;99.90;;;;;;5028398;28;20047;-79
2022/12/29 05:39:59;;;;;;;8.07;1.15;;;9.80;99.90;;;;;;5012376;28;20049;-79
2022/12/29 05:42:24;;;;;;;6.60;0.77;;;9.70;99.90;;;;;;5012899;28;20055;-79
2022/12/29 05:44:53;;;;;;;12.98;1.45;;;9.70;99.90;;;;;;5012342;28;20086;-79
2022/12/29 05:47:19;;;;;;;13.55;1.20;;;9.70;99.90;;;;;;5013059;28;20052;-79
2022/12/29 05:49:45;;;;;;;9.63;1.75;;;9.70;99.90;;;;;;5012053;28;20408;-80
2022/12/29 05:52:10;;;;;;;8.68;1.13;;;9.70;99.90;;;;;;4996359;28;20048;-79
2022/12/29 05:54:36;;;;;;;3.45;0.88;;;10.50;99.90;;;;;;5028507;28;20041;-79
2022/12/29 05:57:02;;;;;;;13.38;1.38;;;9.70;99.90;;;;;;4996003;28;20240;-79
2022/12/29 05:59:28;;;;;;;9.43;1.00;;;9.60;99.90;;;;;;5028779;28;20052;-79
2022/12/29 06:01:53;;;;;;;11.95;1.40;;;9.70;99.90;;;;;;5012238;28;20045;-79
2022/12/29 06:04:19;;;;;;;11.50;1.60;;;9.80;99.90;;;;;;5012413;28;20059;-79
2022/12/29 06:06:45;;;;;;;9.25;1.15;;;9.70;99.90;;;;;;5012016;28;20064;-79
2022/12/29 06:09:10;;;;;;;9.52;2.00;;;9.70;99.90;;;;;;4996497;28;20310;-79
2022/12/29 06:11:37;;;;;;;12.95;1.65;;;9.70;99.90;;;;;;5012382;28;20048;-79
2022/12/29 06:14:03;;;;;;;8.95;1.27;;;9.70;99.90;;;;;;4983822;28;20052;-80
2022/12/29 06:16:28;;;;;;;8.43;2.05;;;9.70;99.90;;;;;;4999169;28;20044;-79
2022/12/29 06:18:54;;;;;;;8.15;1.13;;;9.70;99.90;;;;;;5015903;28;20040;-79
2022/12/29 06:21:20;;;;;;;10.68;1.33;;;9.70;99.90;;;;;;4999627;28;20691;-79
2022/12/29 06:23:46;;;;;;;10.90;1.27;;;9.80;99.90;;;;;;5031581;28;20132;-79
2022/12/29 06:26:11;;;;;;;14.27;1.35;;;9.80;99.90;;;;;;5000035;28;20048;-80
2022/12/29 06:28:37;;;;;;;11.02;1.50;;;10.10;99.90;;;;;;5031819;28;20357;-80
2022/12/29 06:31:03;;;;;;;11.07;1.25;;;9.80;99.90;;;;;;4999031;28;20048;-81
2022/12/29 06:33:29;;;;;;;12.65;1.60;;;9.80;99.90;;;;;;4998790;28;20041;-80
2022/12/29 06:35:55;;;;;;;16.70;1.48;;;9.70;99.90;;;;;;5015372;28;20095;-80
2022/12/29 06:38:20;;;;;;;8.13;1.63;;;9.70;99.90;;;;;;5015846;28;20650;-81
2022/12/29 06:40:46;;;;;;;20.55;2.78;;;9.70;99.90;;;;;;5015501;28;20044;-80
2022/12/29 06:43:12;;;;;;;14.20;2.28;;;10.00;99.90;;;;;;5032301;28;20471;-81
2022/12/29 06:45:39;;;;;;;10.88;1.65;;;9.70;99.90;;;;;;5014528;28;20076;-81
2022/12/29 06:48:06;;;;;;;11.52;1.20;;;9.60;99.90;;;;;;5015170;28;20045;-83
2022/12/29 06:50:31;;;;;;;14.38;1.63;;;9.70;99.90;;;;;;5014948;28;20084;-83
2022/12/29 06:52:57;;;;;;;19.05;2.38;;;9.70;99.90;;;;;;4998782;28;20095;-81
2022/12/29 06:55:23;;;;;;;14.43;1.85;;;10.70;99.90;;;;;;5014994;28;20613;-80
2022/12/29 06:57:48;;;;;;;15.65;2.42;;;10.00;99.90;;;;;;5031468;28;20080;-81
2022/12/29 07:00:15;;;;;;;22.15;2.40;;;9.70;99.90;;;;;;5015268;28;20077;-80
2022/12/29 07:02:40;;;;;;;10.30;1.85;;;9.70;99.90;;;;;;5031261;28;20110;-81
2022/12/29 07:05:07;;;;;;;15.88;2.13;;;9.60;99.90;;;;;;4998688;28;20547;-81
2022/12/29 07:07:33;;;;;;;16.35;2.00;;;9.60;99.90;;;;;;4998685;28;20045;-81
2022/12/29 07:09:58;;;;;;;7.45;1.05;;;9.60;99.90;;;;;;5030859;28;20415;-81
2022/12/29 07:12:24;;;;;;;12.57;1.88;;;9.60;99.90;;;;;;4998539;28;20103;-81
2022/12/29 07:14:50;;;;;;;19.40;1.75;;;9.60;99.90;;;;;;5030811;28;20045;-81
2022/12/29 07:17:16;;;;;;;10.40;1.98;;;9.50;99.90;;;;;;5015155;28;20068;-81
2022/12/29 07:19:41;;;;;;;12.13;1.77;;;9.60;99.90;;;;;;5013929;28;20523;-82
2022/12/29 07:22:08;;;;;;;10.30;1.33;;;9.60;99.90;;;;;;5031103;28;20393;-82
2022/12/29 07:24:33;;;;;;;16.85;2.55;;;10.50;99.90;;;;;;5013180;28;20098;-81
2022/12/29 07:26:59;;;;;;;9.57;1.52;;;9.60;99.90;;;;;;5030913;28;20447;-81
2022/12/29 07:29:24;;;;;;;13.77;1.58;;;9.60;99.90;;;;;;5014231;28;20047;-79
2022/12/29 07:31:50;;;;;;;9.05;1.45;;;9.60;99.90;;;;;;5014199;28;20048;-82
2022/12/29 07:34:16;;;;;;;10.80;1.35;;;9.80;99.90;;;;;;4998183;28;20098;-81
2022/12/29 07:36:41;;;;;;;12.27;1.42;;;9.70;99.90;;;;;;4998042;28;20053;-82
2022/12/29 07:39:07;;;;;;;12.60;1.80;;;9.70;99.90;;;;;;5030570;28;20044;-80
2022/12/29 07:41:34;;;;;;;14.77;3.47;;;9.70;99.90;;;;;;5030064;28;20131;-80
2022/12/29 07:44:00;;;;;;;9.27;1.95;;;9.70;99.90;;;;;;5030701;28;20119;-80
2022/12/29 07:46:25;;;;;;;13.57;2.47;;;9.90;99.90;;;;;;5014283;28;20512;-78
2022/12/29 07:48:51;;;;;;;24.88;2.28;;;9.80;99.90;;;;;;5030469;28;20056;-81
2022/12/29 07:51:17;;;;;;;15.82;3.70;;;9.80;99.90;;;;;;5030539;28;20049;-81
2022/12/29 07:53:42;;;;;;;12.15;2.97;;;9.80;99.90;;;;;;5030603;28;20036;-80
2022/12/29 07:56:08;;;;;;;10.60;2.13;;;9.90;99.90;;;;;;5013757;28;20477;-82
2022/12/29 07:58:34;;;;;;;4.53;1.17;;;9.80;99.90;;;;;;5013225;28;20052;-82
2022/12/29 08:00:59;;;;;;;16.55;1.90;;;9.80;99.90;;;;;;5030342;28;20041;-82
2022/12/29 08:03:25;;;;;;;17.25;1.80;;;10.50;99.90;;;;;;5013830;28;20110;-81
2022/12/29 08:05:52;;;;;;;13.77;1.33;;;10.10;99.90;;;;;;5013990;28;20045;-82
2022/12/29 08:08:18;;;;;;;15.00;1.60;;;9.80;99.90;;;;;;5013375;28;20044;-82
2022/12/29 08:10:44;;;;;;;13.98;1.90;;;10.40;99.90;;;;;;5029961;28;20041;-82
2022/12/29 08:13:09;;;;;;;11.57;2.08;;;10.10;99.90;;;;;;5013790;28;20093;-82
2022/12/29 08:15:37;;;;;;;11.43;1.90;;;9.80;99.90;;;;;;4996870;28;20051;-82
2022/12/29 08:18:03;;;;;;;10.48;2.00;;;9.70;99.90;;;;;;5031100;28;20045;-82
2022/12/29 08:20:29;;;;;;;12.65;1.58;;;9.80;99.90;;;;;;4996674;28;20503;-82
2022/12/29 08:22:55;;;;;;;10.32;2.25;;;9.80;99.90;;;;;;5029398;28;20095;-82
2022/12/29 08:25:21;;;;;;;12.15;1.75;;;9.70;99.90;;;;;;5013335;28;20041;-82
2022/12/29 08:27:46;;;;;;;9.35;2.47;;;9.70;99.90;;;;;;5029623;28;20052;-82
2022/12/29 08:30:12;;;;;;;15.52;1.95;;;9.90;99.90;;;;;;5029714;28;20063;-81
2022/12/29 08:32:38;;;;;;;9.93;1.38;;;9.70;99.90;;;;;;5029015;28;20484;-82
2022/12/29 08:35:04;;;;;;;17.77;2.22;;;9.80;99.90;;;;;;5012877;28;20043;-82
2022/12/29 08:37:32;;;;;;;12.80;2.60;;;9.80;99.90;;;;;;4996497;28;20476;-82
2022/12/29 08:39:59;;;;;;;19.63;2.65;;;9.80;99.90;;;;;;5029553;28;20048;-82
2022/12/29 08:42:30;;;;;;;17.35;2.58;;;9.80;99.90;;;;;;5013281;28;20472;-82
2022/12/29 08:44:59;;;;;;;15.65;3.45;;;9.70;99.90;;;;;;5029197;28;20052;-82
2022/12/29 08:47:25;;;;;;;15.90;2.88;;;9.70;99.90;;;;;;5013736;28;20041;-82
2022/12/29 08:49:51;;;;;;;23.10;3.92;;;9.60;99.90;;;;;;5029160;28;20040;-82
2022/12/29 08:52:17;;;;;;;22.73;2.33;;;9.50;99.90;;;;;;5029743;28;20551;-83
2022/12/29 08:54:43;;;;;;;14.95;2.30;;;9.50;99.90;;;;;;5014602;28;20072;-83
2022/12/29 08:57:08;;;;;;;16.83;2.40;;;9.50;99.90;;;;;;5029238;28;20119;-82
2022/12/29 08:59:35;;;;;;;13.68;2.17;;;9.50;99.90;;;;;;5012797;28;20051;-82
2022/12/29 09:02:01;;;;;;;27.13;3.83;;;10.00;99.90;;;;;;5029045;28;20048;-82
2022/12/29 09:04:27;;;;;;;25.92;3.28;;;9.40;99.90;;;;;;5013635;28;20470;-82
2022/12/29 09:06:53;;;;;;;16.30;2.55;;;9.50;99.90;;;;;;5012274;28;20047;-82
2022/12/29 09:09:19;;;;;;;24.73;2.45;;;9.50;99.90;;;;;;5029081;28;20132;-81
2022/12/29 09:11:45;;;;;;;18.67;2.60;;;9.50;99.90;;;;;;5012668;28;20049;-82
2022/12/29 09:14:11;;;;;;;24.13;3.85;;;9.50;99.90;;;;;;5028763;28;20040;-82
2022/12/29 09:16:38;;;;;;;24.08;3.38;;;9.30;99.90;;;;;;5012562;28;20049;-82
2022/12/29 09:19:03;;;;;;;24.27;3.20;;;9.50;99.90;;;;;;5029233;28;20436;-82
2022/12/29 09:21:29;;;;;;;33.90;3.33;;;9.80;99.90;;;;;;5013329;28;20041;-83
2022/12/29 09:23:55;;;;;;;14.23;2.15;;;10.40;99.90;;;;;;4995835;28;20132;-83
2022/12/29 09:26:21;;;;;;;19.88;2.45;;;9.90;99.90;;;;;;5012748;28;20119;-83
2022/12/29 09:28:47;;;;;;;19.05;2.38;;;9.40;99.90;;;;;;4979611;28;20318;-82
2022/12/29 09:31:13;;;;;;;17.73;2.88;;;9.60;99.90;;;;;;5028529;28;20037;-82
2022/12/29 09:33:38;;;;;;;16.33;2.47;;;9.40;99.90;;;;;;5012636;28;20095;-82
2022/12/29 09:36:04;;;;;;;16.98;1.77;;;9.50;99.90;;;;;;5028729;28;20045;-82
2022/12/29 09:38:30;;;;;;;20.88;2.53;;;9.50;99.90;;;;;;5029499;28;20517;-81
2022/12/29 09:41:21;;;;;;;20.30;3.17;;;9.50;99.90;;;;;;4995583;28;20041;-81
2022/12/29 09:44:16;;;;;;;19.60;1.92;;;9.60;99.90;;;;;;5018415;28;20524;-82
2022/12/29 09:46:45;;;;;;;22.77;3.35;;;9.50;99.90;;;;;;5029254;28;20084;-82
2022/12/29 09:49:33;;;;;;;12.30;1.83;;;9.60;99.90;;;;;;5032893;28;20506;-82
2022/12/29 09:52:12;;;;;;;11.90;1.80;;;9.50;99.90;;;;;;5032816;28;20045;-82
2022/12/29 09:54:41;;;;;;;17.30;2.00;;;9.50;99.90;;;;;;5032313;28;20116;-83
2022/12/29 09:57:27;;;;;;;18.92;2.95;;;9.50;99.90;;;;;;5031518;28;20057;-82
2022/12/29 09:59:59;;;;;;;16.27;1.83;;;9.40;99.90;;;;;;5032775;28;20048;-82
2022/12/29 10:02:40;;;;;;;16.40;2.28;;;9.40;99.90;;;;;;5032455;28;20048;-81
2022/12/29 10:05:35;;;;;;;13.00;1.88;;;9.50;99.90;;;;;;5032732;28;20123;-81
2022/12/29 10:08:09;;;;;;;13.63;1.60;;;9.50;99.90;;;;;;5032837;28;20061;-82
2022/12/29 10:10:56;;;;;;;15.50;1.52;;;9.40;99.90;;;;;;5032041;28;20053;-81
2022/12/29 10:13:38;;;;;;;14.48;1.90;;;9.40;99.90;;;;;;5000527;28;20399;-81
2022/12/29 10:16:26;;;;;;;14.70;2.30;;;9.40;99.90;;;;;;5031968;28;20091;-81
2022/12/29 10:19:17;;;;;;;11.43;2.22;;;9.40;99.90;;;;;;5033506;28;20399;-83
2022/12/29 10:22:16;;;;;;;17.20;3.95;;;9.30;99.90;;;;;;5034242;28;20103;-83
2022/12/29 10:24:44;;;;;;;13.02;1.90;;;9.30;99.90;;;;;;5024081;28;20115;-82
2022/12/29 10:27:16;;;;;;;18.75;2.63;;;9.40;99.90;;;;;;5016267;28;20045;-82
2022/12/29 10:29:55;;;;;;;13.07;1.98;;;8.70;99.90;;;;;;5015879;28;20048;-82
2022/12/29 10:32:39;;;;;;;7.78;1.52;;;9.20;99.90;;;;;;5031830;28;20156;-82
2022/12/29 10:35:29;;;;;;;9.32;1.67;;;9.40;99.90;;;;;;5016026;28;20044;-83
2022/12/29 10:38:01;;;;;;;8.65;1.63;;;9.10;99.90;;;;;;5031376;28;20187;-84
2022/12/29 10:40:42;;;;;;;10.20;1.70;;;9.10;99.90;;;;;;5031408;28;20363;-83
2022/12/29 10:43:23;;;;;;;11.65;1.50;;;9.10;99.90;;;;;;5015601;28;20442;-82
2022/12/29 10:45:49;;;;;;;17.20;2.70;;;9.00;99.90;;;;;;5030558;28;20052;-83
2022/12/29 10:48:22;;;;;;;6.43;1.67;;;9.00;99.90;;;;;;5031227;28;20087;-81
2022/12/29 10:50:49;;;;;;;8.45;1.90;;;9.00;99.90;;;;;;5031186;28;20087;-80
2022/12/29 10:53:22;;;;;;;17.15;1.50;;;9.30;99.90;;;;;;5014959;28;20049;-81
2022/12/29 10:55:49;;;;;;;12.07;2.03;;;9.00;99.90;;;;;;5031798;28;20463;-81
2022/12/29 10:58:15;;;;;;;15.10;2.90;;;9.10;99.90;;;;;;5027185;28;20057;-82
2022/12/29 11:00:42;;;;;;;18.92;2.13;;;9.10;99.90;;;;;;5028295;28;20052;-81
2022/12/29 11:03:09;;;;;;;16.20;2.20;;;9.20;99.90;;;;;;5027899;28;20409;-81
2022/12/29 11:05:59;;;;;;;14.10;1.60;;;9.20;99.90;;;;;;5028345;28;20182;-81
2022/12/29 11:08:30;;;;;;;14.50;2.95;;;9.20;99.90;;;;;;5011370;28;20107;-81
2022/12/29 11:11:05;;;;;;;17.55;3.00;;;9.30;99.90;;;;;;5027322;28;20056;-81
2022/12/29 11:13:33;;;;;;;18.88;3.13;;;9.30;99.90;;;;;;5027931;28;20176;-81
2022/12/29 11:16:02;;;;;;;15.50;2.13;;;9.30;99.90;;;;;;5027276;28;20049;-81
2022/12/29 11:18:40;;;;;;;21.90;2.90;;;9.40;99.90;;;;;;5010896;28;20052;-81
2022/12/29 11:21:26;;;;;;;16.85;2.65;;;9.40;99.90;;;;;;5027240;28;20232;-81
2022/12/29 11:24:01;;;;;;;17.05;2.63;;;8.90;99.90;;;;;;5027291;28;20048;-82
2022/12/29 11:26:27;;;;;;;20.63;3.13;;;9.40;99.90;;;;;;5027738;28;20955;-81
2022/12/29 11:29:20;;;;;;;19.05;2.83;;;9.40;99.90;;;;;;5010324;28;20172;-80
2022/12/29 11:31:58;;;;;;;17.83;2.42;;;9.50;99.90;;;;;;5027086;28;20045;-81
2022/12/29 11:34:30;;;;;;;20.23;3.53;;;9.50;99.90;;;;;;5028042;28;20559;-81
2022/12/29 11:37:06;;;;;;;16.48;3.22;;;9.50;99.90;;;;;;5010399;28;20045;-82
2022/12/29 11:39:37;;;;;;;29.08;3.03;;;9.60;99.90;;;;;;5011370;28;20037;-82
2022/12/29 11:42:09;;;;;;;19.63;2.58;;;9.60;99.90;;;;;;5027184;28;20054;-82
2022/12/29 11:44:43;;;;;;;22.83;4.45;;;9.80;99.90;;;;;;5027620;28;20046;-82
2022/12/29 11:47:21;;;;;;;21.48;2.70;;;9.60;99.90;;;;;;5010897;28;20476;-82
2022/12/29 11:49:53;;;;;;;23.50;3.20;;;9.60;99.90;;;;;;5010215;28;20045;-82
2022/12/29 11:52:25;;;;;;;21.13;3.73;;;9.70;99.90;;;;;;5027056;28;20164;-82
2022/12/29 11:54:52;;;;;;;22.38;3.35;;;9.60;99.90;;;;;;5027136;28;20371;-81
2022/12/29 11:57:20;;;;;;;18.45;2.85;;;9.60;99.90;;;;;;5010304;28;20176;-82
2022/12/29 11:59:50;;;;;;;17.30;2.10;;;9.70;99.90;;;;;;5027476;28;20052;-81
2022/12/29 12:02:41;;;;;;;17.30;2.55;;;9.80;99.90;;;;;;5010384;28;20122;-81
2022/12/29 12:05:36;;;;;;;26.92;2.50;;;9.70;99.90;;;;;;5026754;28;20053;-81
2022/12/29 12:08:11;;;;;;;25.02;3.83;;;9.70;99.90;;;;;;5026595;28;20045;-82
2022/12/29 12:10:48;;;;;;;14.35;3.10;;;9.60;99.90;;;;;;5025829;28;20516;-82
2022/12/29 12:13:29;;;;;;;18.75;2.90;;;9.60;99.90;;;;;;5028509;28;20053;-82
2022/12/29 12:16:24;;;;;;;18.50;3.70;;;9.60;99.90;;;;;;5026478;28;20126;-82
2022/12/29 12:19:09;;;;;;;18.88;3.08;;;9.60;99.90;;;;;;5024013;28;20045;-83
2022/12/29 12:21:41;;;;;;;20.70;2.78;;;9.60;99.90;;;;;;5010295;28;20051;-82
2022/12/29 12:24:20;;;;;;;15.00;2.47;;;9.60;99.90;;;;;;5025349;28;20053;-82
2022/12/29 12:27:21;;;;;;;25.83;3.42;;;10.00;99.90;;;;;;5026385;28;20064;-82
2022/12/29 12:30:03;;;;;;;32.97;4.18;;;9.50;99.90;;;;;;5010059;28;20059;-83
2022/12/29 12:32:28;;;;;;;27.33;3.33;;;8.90;99.90;;;;;;5027628;28;20059;-83
2022/12/29 12:34:54;;;;;;;18.98;2.92;;;9.70;99.90;;;;;;5027667;28;20034;-83
2022/12/29 12:37:37;;;;;;;23.10;3.38;;;9.70;99.90;;;;;;5027036;28;20087;-82
2022/12/29 12:40:27;;;;;;;13.70;2.72;;;9.80;99.90;;;;;;5009716;28;20067;-81
2022/12/29 12:43:38;;;;;;;15.50;2.67;;;9.70;99.90;;;;;;5027725;28;20052;-81
2022/12/29 12:46:39;;;;;;;22.95;2.20;;;9.70;99.90;;;;;;5016724;28;20116;-82
2022/12/29 12:49:48;;;;;;;9.05;1.90;;;9.70;99.90;;;;;;5025724;28;20507;-82
2022/12/29 12:52:35;;;;;;;17.70;2.15;;;9.60;99.90;;;;;;5027264;28;20727;-83
2022/12/29 12:55:22;;;;;;;15.93;2.22;;;8.90;99.90;;;;;;5025632;28;20137;-82
2022/12/29 12:57:53;;;;;;;18.85;2.30;;;9.60;99.90;;;;;;5008863;28;20080;-82
2022/12/29 13:00:20;;;;;;;10.57;2.70;;;9.50;99.90;;;;;;5009422;28;20115;-81
2022/12/29 13:03:16;;;;;;;17.48;2.45;;;9.60;99.90;;;;;;5025263;28;20085;-83
2022/12/29 13:06:30;;;;;;;11.05;2.15;;;9.60;99.90;;;;;;5027397;28;20081;-83
2022/12/29 13:09:33;;;;;;;13.75;1.75;;;9.60;99.90;;;;;;4988733;28;20054;-83
2022/12/29 13:12:25;;;;;;;16.33;2.35;;;9.60;99.90;;;;;;5026849;28;20504;-82
2022/12/29 13:15:06;;;;;;;14.27;2.23;;;9.60;99.90;;;;;;5009169;28;20049;-81
2022/12/29 13:18:09;;;;;;;6.32;1.30;;;9.70;99.90;;;;;;5027595;28;20111;-81
2022/12/29 13:20:56;;;;;;;11.23;1.05;;;9.70;99.90;;;;;;5004586;28;20057;-82
2022/12/29 13:23:36;;;;;;;10.60;1.98;;;9.70;99.90;;;;;;5029476;28;20128;-81
2022/12/29 13:26:17;;;;;;;8.45;2.38;;;9.60;99.90;;;;;;5031638;28;20081;-81
2022/12/29 13:29:07;;;;;;;7.82;0.77;;;9.50;99.90;;;;;;5029349;28;20078;-81
2022/12/29 13:31:52;;;;;;;16.40;1.58;;;9.50;99.90;;;;;;5029698;28;20345;-82
2022/12/29 13:34:31;;;;;;;5.85;1.13;;;9.40;99.90;;;;;;5030037;28;20050;-82
2022/12/29 13:37:04;;;;;;;7.22;1.00;;;9.40;99.90;;;;;;5029149;28;20445;-82
2022/12/29 13:39:38;;;;;;;11.70;2.30;;;9.30;99.90;;;;;;5029913;28;20057;-82
2022/12/29 13:42:05;;;;;;;14.30;1.50;;;9.30;99.90;;;;;;5029656;28;20053;-82
2022/12/29 13:44:42;;;;;;;15.77;1.33;;;9.30;99.90;;;;;;4997174;28;20047;-82